createdAt,value
2023-01-19T00:00:27.039Z,74.20
2023-01-19T00:02:55.130Z,74.98
2023-01-19T00:05:22.344Z,75.44
2023-01-19T00:07:49.390Z,75.58
2023-01-19T00:10:16.976Z,76.57
2023-01-19T00:12:44.104Z,76.55
2023-01-19T00:15:11.784Z,74.42
2023-01-19T00:17:41.188Z,73.81
2023-01-19T00:20:09.715Z,73.48
2023-01-19T00:22:36.714Z,73.62
2023-01-19T00:25:04.037Z,74.35
2023-01-19T00:27:35.123Z,75.38
2023-01-19T00:30:02.465Z,76.24
2023-01-19T00:32:29.395Z,77.49
2023-01-19T00:34:56.262Z,77.83
2023-01-19T00:37:23.479Z,76.39
2023-01-19T00:39:50.394Z,75.69
2023-01-19T00:42:36.088Z,75.45
2023-01-19T00:45:02.982Z,75.72
2023-01-19T00:47:29.892Z,75.78
2023-01-19T00:49:56.788Z,76.07
2023-01-19T00:52:23.789Z,76.44
2023-01-19T00:54:50.835Z,78.47
2023-01-19T00:57:19.335Z,78.74
2023-01-19T00:59:46.446Z,77.68
2023-01-19T01:02:13.578Z,76.69
2023-01-19T01:04:40.767Z,76.61
2023-01-19T01:07:07.973Z,75.58
2023-01-19T01:09:34.889Z,76.22
2023-01-19T01:12:01.772Z,76.78
2023-01-19T01:14:29.124Z,77.56
2023-01-19T01:16:56.227Z,78.80
2023-01-19T01:19:23.252Z,79.38
2023-01-19T01:21:51.330Z,78.46
2023-01-19T01:24:19.085Z,77.79
2023-01-19T01:26:46.234Z,77.73
2023-01-19T01:29:13.274Z,78.16
2023-01-19T01:31:40.221Z,78.39
2023-01-19T01:34:07.503Z,78.79
2023-01-19T01:36:35.751Z,79.44
2023-01-19T01:39:02.910Z,79.85
2023-01-19T01:41:29.867Z,78.77
2023-01-19T01:43:58.970Z,78.03
2023-01-19T01:46:26.920Z,78.03
2023-01-19T01:49:08.113Z,78.23
2023-01-19T01:51:39.543Z,78.60
2023-01-19T01:54:09.418Z,79.41
2023-01-19T01:56:39.302Z,80.29
2023-01-19T01:59:09.514Z,81.13
2023-01-19T02:01:55.605Z,78.92
2023-01-19T02:04:23.207Z,77.41
2023-01-19T02:07:08.814Z,78.51
2023-01-19T02:09:55.639Z,79.63
2023-01-19T02:12:41.959Z,81.52
2023-01-19T02:15:18.951Z,83.47
2023-01-19T02:17:46.152Z,82.22
2023-01-19T02:20:13.244Z,80.34
2023-01-19T02:22:48.970Z,78.70
2023-01-19T02:25:16.422Z,78.79
2023-01-19T02:27:43.325Z,79.47
2023-01-19T02:30:11.228Z,80.47
2023-01-19T02:32:38.179Z,80.94
2023-01-19T02:35:06.155Z,81.77
2023-01-19T02:37:34.523Z,80.64
2023-01-19T02:40:02.198Z,79.91
2023-01-19T02:42:37.613Z,79.04
2023-01-19T02:45:07.000Z,78.85
2023-01-19T02:47:45.033Z,79.61
2023-01-19T02:50:37.455Z,80.08
2023-01-19T02:53:26.236Z,80.56
2023-01-19T02:55:56.765Z,80.53
2023-01-19T02:58:31.381Z,79.49
2023-01-19T03:01:14.139Z,79.51
2023-01-19T03:04:16.783Z,79.63
2023-01-19T03:06:52.883Z,80.69
2023-01-19T03:09:32.788Z,81.91
2023-01-19T03:12:08.276Z,83.30
2023-01-19T03:14:35.183Z,83.00
2023-01-19T03:17:03.311Z,82.18
2023-01-19T03:19:36.029Z,80.54
2023-01-19T03:22:09.788Z,79.60
2023-01-19T03:24:40.240Z,79.74
2023-01-19T03:27:10.875Z,79.75
2023-01-19T03:29:37.756Z,80.04
2023-01-19T03:32:07.334Z,80.92
2023-01-19T03:34:34.612Z,81.83
2023-01-19T03:37:03.592Z,80.88
2023-01-19T03:39:30.673Z,80.17
2023-01-19T03:41:59.217Z,79.96
2023-01-19T03:44:26.579Z,80.26
2023-01-19T03:46:53.558Z,81.72
2023-01-19T03:49:20.571Z,82.55
2023-01-19T03:51:47.653Z,83.55
2023-01-19T03:54:14.765Z,83.28
2023-01-19T03:56:43.853Z,81.30
2023-01-19T03:59:11.108Z,80.27
2023-01-19T04:01:38.023Z,80.55
2023-01-19T04:04:05.077Z,80.13
2023-01-19T04:06:32.468Z,80.36
2023-01-19T04:08:59.502Z,80.94
2023-01-19T04:11:26.455Z,81.15
2023-01-19T04:13:53.510Z,79.58
2023-01-19T04:16:21.440Z,78.58
2023-01-19T04:18:48.737Z,78.73
2023-01-19T04:21:15.744Z,79.40
2023-01-19T04:23:44.484Z,79.44
2023-01-19T04:26:11.406Z,80.86
2023-01-19T04:28:38.633Z,81.90
2023-01-19T04:31:06.544Z,82.02
2023-01-19T04:33:33.671Z,80.51
2023-01-19T04:36:00.843Z,79.84
2023-01-19T04:38:27.770Z,79.39
2023-01-19T04:40:55.007Z,80.02
2023-01-19T04:43:22.302Z,82.13
2023-01-19T04:45:49.384Z,82.69
2023-01-19T04:48:18.717Z,82.82
2023-01-19T04:50:46.160Z,82.54
2023-01-19T04:53:13.918Z,80.81
2023-01-19T04:55:41.048Z,79.47
2023-01-19T04:58:08.202Z,79.13
2023-01-19T05:00:35.402Z,79.83
2023-01-19T05:03:02.927Z,80.46
2023-01-19T05:05:30.243Z,81.08
2023-01-19T05:07:57.233Z,82.49
2023-01-19T05:10:24.284Z,83.48
2023-01-19T05:12:51.548Z,81.65
2023-01-19T05:15:18.484Z,80.03
2023-01-19T05:17:45.943Z,80.73
2023-01-19T05:20:15.953Z,81.42
2023-01-19T05:22:48.766Z,81.76
2023-01-19T05:25:15.827Z,82.37
2023-01-19T05:27:43.272Z,83.14
2023-01-19T05:30:11.486Z,82.01
2023-01-19T05:32:38.380Z,81.01
2023-01-19T05:35:06.219Z,81.86
2023-01-19T05:37:33.183Z,83.50
2023-01-19T05:40:00.132Z,84.66
2023-01-19T05:42:27.114Z,85.25
2023-01-19T05:44:54.122Z,85.67
2023-01-19T05:47:21.023Z,85.73
2023-01-19T05:49:48.007Z,83.72
2023-01-19T05:52:15.069Z,82.59
2023-01-19T05:54:42.114Z,84.11
2023-01-19T05:57:09.346Z,84.68
2023-01-19T05:59:36.251Z,86.34
2023-01-19T06:02:03.632Z,86.92
2023-01-19T06:04:30.906Z,85.10
2023-01-19T06:06:57.880Z,85.49
2023-01-19T06:09:24.787Z,85.22
2023-01-19T06:11:54.366Z,87.00
2023-01-19T06:14:21.254Z,88.28
2023-01-19T06:16:48.304Z,87.92
2023-01-19T06:19:15.235Z,86.76
2023-01-19T06:21:42.725Z,86.56
2023-01-19T06:24:09.888Z,87.61
2023-01-19T06:26:37.589Z,88.82
2023-01-19T06:29:04.431Z,87.73
2023-01-19T06:31:31.377Z,85.19
2023-01-19T06:33:58.411Z,83.45
2023-01-19T06:36:25.473Z,83.62
2023-01-19T06:38:52.343Z,84.29
2023-01-19T06:41:19.392Z,86.08
2023-01-19T06:43:46.411Z,87.40
2023-01-19T06:46:14.043Z,85.86
2023-01-19T06:48:41.486Z,83.80
2023-01-19T06:51:08.731Z,83.21
2023-01-19T06:53:35.725Z,83.54
2023-01-19T06:56:03.398Z,84.36
2023-01-19T06:58:31.771Z,85.26
2023-01-19T07:01:03.570Z,85.92
2023-01-19T07:03:30.616Z,84.88
2023-01-19T07:05:57.823Z,82.71
2023-01-19T07:08:24.724Z,81.77
2023-01-19T07:11:25.279Z,81.83
2023-01-19T07:13:39.660Z,82.38
2023-01-19T07:16:11.607Z,82.61
2023-01-19T07:18:39.117Z,83.32
2023-01-19T07:21:06.827Z,84.23
2023-01-19T07:23:34.144Z,83.84
2023-01-19T07:26:01.950Z,82.99
2023-01-19T07:28:29.905Z,82.12
2023-01-19T07:30:56.854Z,81.89
2023-01-19T07:33:25.062Z,81.84
2023-01-19T07:35:52.588Z,82.75
2023-01-19T07:38:19.785Z,83.33
2023-01-19T07:40:47.247Z,84.03
2023-01-19T07:43:14.984Z,83.30
2023-01-19T07:45:43.006Z,80.65
2023-01-19T07:48:09.997Z,79.46
2023-01-19T07:50:37.246Z,79.58
2023-01-19T07:53:08.401Z,79.79
2023-01-19T07:55:35.664Z,80.21
2023-01-19T07:58:06.662Z,80.69
2023-01-19T08:00:35.440Z,80.45
2023-01-19T08:03:03.373Z,78.58
2023-01-19T08:05:31.513Z,78.10
2023-01-19T08:07:58.861Z,78.10
2023-01-19T08:10:26.904Z,78.21
2023-01-19T08:12:54.602Z,78.95
2023-01-19T08:15:24.135Z,79.37
2023-01-19T08:17:58.303Z,79.68
2023-01-19T08:20:25.979Z,78.08
2023-01-19T08:23:00.299Z,76.86
2023-01-19T08:25:36.366Z,76.51
2023-01-19T08:28:04.457Z,76.98
2023-01-19T08:30:31.482Z,76.99
2023-01-19T08:33:04.298Z,77.05
2023-01-19T08:35:32.230Z,77.06
2023-01-19T08:38:01.829Z,77.09
2023-01-19T08:40:30.465Z,77.29
2023-01-19T08:43:03.724Z,75.75
2023-01-19T08:45:33.707Z,75.19
2023-01-19T08:48:01.179Z,74.53
2023-01-19T08:50:29.248Z,74.12
2023-01-19T08:52:58.266Z,74.27
2023-01-19T08:55:26.059Z,74.86
2023-01-19T08:57:53.856Z,76.18
2023-01-19T09:00:21.405Z,77.37
2023-01-19T09:02:48.566Z,76.92
2023-01-19T09:05:15.822Z,76.03
2023-01-19T09:07:44.484Z,75.54
2023-01-19T09:10:11.611Z,76.55
2023-01-19T09:12:38.816Z,77.20
2023-01-19T09:15:07.185Z,77.60
2023-01-19T09:17:34.647Z,77.26
2023-01-19T09:20:01.593Z,76.50
2023-01-19T09:22:28.651Z,76.83
2023-01-19T09:24:55.787Z,77.83
2023-01-19T09:27:23.149Z,78.77
2023-01-19T09:29:52.951Z,78.80
2023-01-19T09:32:20.716Z,78.03
2023-01-19T09:34:47.767Z,77.99
2023-01-19T09:37:16.322Z,78.62
2023-01-19T09:39:43.507Z,79.11
2023-01-19T09:42:35.121Z,79.10
2023-01-19T09:45:03.422Z,77.84
2023-01-19T09:47:30.455Z,77.54
2023-01-19T09:50:06.862Z,78.36
2023-01-19T09:52:36.308Z,79.15
2023-01-19T09:55:03.360Z,79.71
2023-01-19T09:57:30.477Z,79.13
2023-01-19T10:00:00.334Z,78.46
2023-01-19T10:02:36.821Z,78.85
2023-01-19T10:05:29.064Z,79.54
2023-01-19T10:08:18.194Z,80.50
2023-01-19T10:10:52.848Z,79.55
2023-01-19T10:13:32.217Z,78.43
2023-01-19T10:16:39.782Z,79.05
2023-01-19T10:19:23.089Z,79.71
2023-01-19T10:21:50.335Z,80.48
2023-01-19T10:24:33.381Z,78.92
2023-01-19T10:27:00.528Z,78.56
2023-01-19T10:29:34.617Z,78.87
2023-01-19T10:32:26.213Z,79.95
2023-01-19T10:34:54.007Z,80.45
2023-01-19T10:37:32.240Z,79.52
2023-01-19T10:40:11.470Z,78.44
2023-01-19T10:42:40.368Z,78.64
2023-01-19T10:45:21.154Z,79.30
2023-01-19T10:47:48.864Z,79.98
2023-01-19T10:50:29.406Z,78.65
2023-01-19T10:53:03.885Z,77.66
2023-01-19T10:55:32.030Z,77.74
2023-01-19T10:57:59.052Z,78.36
2023-01-19T11:00:39.254Z,79.42
2023-01-19T11:03:25.360Z,79.80
2023-01-19T11:05:52.348Z,77.99
2023-01-19T11:08:24.316Z,77.61
2023-01-19T11:10:58.538Z,78.43
2023-01-19T11:13:25.489Z,78.77
2023-01-19T11:15:54.797Z,79.58
2023-01-19T11:18:49.495Z,78.29
2023-01-19T11:21:16.517Z,77.39
2023-01-19T11:23:46.970Z,77.48
2023-01-19T11:26:16.457Z,78.51
2023-01-19T11:28:46.880Z,79.51
2023-01-19T11:31:13.897Z,79.41
2023-01-19T11:33:52.456Z,78.01
2023-01-19T11:36:24.165Z,77.81
2023-01-19T11:38:53.166Z,78.12
2023-01-19T11:41:22.234Z,79.16
2023-01-19T11:43:50.883Z,79.57
2023-01-19T11:46:17.926Z,78.22
2023-01-19T11:49:02.275Z,77.29
2023-01-19T11:51:34.296Z,78.05
2023-01-19T11:54:01.418Z,78.74
2023-01-19T11:56:29.107Z,79.08
2023-01-19T11:58:56.024Z,78.77
2023-01-19T12:01:25.099Z,77.13
2023-01-19T12:04:02.822Z,76.88
2023-01-19T12:06:31.723Z,77.26
2023-01-19T12:09:03.960Z,77.68
2023-01-19T12:11:33.898Z,78.62
2023-01-19T12:14:01.073Z,78.13
2023-01-19T12:16:29.601Z,76.71
2023-01-19T12:19:01.705Z,76.62
2023-01-19T12:21:28.565Z,77.18
2023-01-19T12:24:13.917Z,77.60
2023-01-19T12:26:56.461Z,78.70
2023-01-19T12:29:28.822Z,77.29
2023-01-19T12:32:14.436Z,76.36
2023-01-19T12:34:49.827Z,76.46
2023-01-19T12:37:42.040Z,77.21
2023-01-19T12:40:21.595Z,78.06
2023-01-19T12:42:55.748Z,79.16
2023-01-19T12:45:25.012Z,78.64
2023-01-19T12:47:55.213Z,77.48
2023-01-19T12:50:24.182Z,77.49
2023-01-19T12:52:58.617Z,77.85
2023-01-19T12:55:25.871Z,78.77
2023-01-19T12:58:17.116Z,79.13
2023-01-19T13:00:45.506Z,78.00
2023-01-19T13:03:18.674Z,77.47
2023-01-19T13:05:53.481Z,77.82
2023-01-19T13:08:30.047Z,78.62
2023-01-19T13:11:00.205Z,79.84
2023-01-19T13:13:37.443Z,78.74
2023-01-19T13:16:19.965Z,78.02
2023-01-19T13:18:53.156Z,78.35
2023-01-19T13:21:36.348Z,79.13
2023-01-19T13:24:05.030Z,80.11
2023-01-19T13:26:38.700Z,79.66
2023-01-19T13:29:10.768Z,78.80
2023-01-19T13:31:39.003Z,78.83
2023-01-19T13:34:11.825Z,79.59
2023-01-19T13:36:41.375Z,80.24
2023-01-19T13:39:13.891Z,80.62
2023-01-19T13:41:43.677Z,79.17
2023-01-19T13:44:21.816Z,78.80
2023-01-19T13:46:48.756Z,79.00
2023-01-19T13:49:33.698Z,79.85
2023-01-19T13:52:27.449Z,80.54
2023-01-19T13:55:04.688Z,80.42
2023-01-19T13:57:32.488Z,79.24
2023-01-19T14:00:05.343Z,79.15
2023-01-19T14:02:41.954Z,79.83
2023-01-19T14:05:41.054Z,80.58
2023-01-19T14:08:13.921Z,80.90
2023-01-19T14:10:42.574Z,79.55
2023-01-19T14:13:25.885Z,79.37
2023-01-19T14:15:55.419Z,79.89
2023-01-19T14:18:22.314Z,80.54
2023-01-19T14:21:03.719Z,81.47
2023-01-19T14:23:38.099Z,80.38
2023-01-19T14:26:05.630Z,80.01
2023-01-19T14:28:39.419Z,79.91
2023-01-19T14:31:20.979Z,80.56
2023-01-19T14:33:49.475Z,81.91
2023-01-19T14:36:17.921Z,81.38
2023-01-19T14:38:48.711Z,80.17
2023-01-19T14:41:37.867Z,80.01
2023-01-19T14:44:11.226Z,80.50
2023-01-19T14:46:38.381Z,81.68
2023-01-19T14:49:06.273Z,82.09
2023-01-19T14:51:33.109Z,81.02
2023-01-19T14:54:00.144Z,80.28
2023-01-19T14:56:28.915Z,80.67
2023-01-19T14:58:59.955Z,81.95
2023-01-19T15:01:31.884Z,82.88
2023-01-19T15:03:58.998Z,82.25
2023-01-19T15:06:26.117Z,81.35
2023-01-19T15:08:56.096Z,81.74
2023-01-19T15:11:27.937Z,82.44
2023-01-19T15:13:55.596Z,83.58
2023-01-19T15:16:23.414Z,83.00
2023-01-19T15:18:50.476Z,81.82
2023-01-19T15:21:23.601Z,82.31
2023-01-19T15:23:50.676Z,82.92
2023-01-19T15:26:19.102Z,83.88
2023-01-19T15:28:46.134Z,82.96
2023-01-19T15:31:20.440Z,82.20
2023-01-19T15:33:47.492Z,81.88
2023-01-19T15:36:18.597Z,82.44
2023-01-19T15:38:46.431Z,83.49
2023-01-19T15:41:26.191Z,83.22
2023-01-19T15:43:53.247Z,81.89
2023-01-19T15:46:20.854Z,82.00
2023-01-19T15:48:48.594Z,83.29
2023-01-19T15:51:28.925Z,83.96
2023-01-19T15:53:56.016Z,82.59
2023-01-19T15:56:24.990Z,81.63
2023-01-19T15:58:52.698Z,81.74
2023-01-19T16:01:21.733Z,82.41
2023-01-19T16:03:49.253Z,83.87
2023-01-19T16:06:16.688Z,82.85
2023-01-19T16:08:43.746Z,82.23
2023-01-19T16:11:14.913Z,82.03
2023-01-19T16:13:45.473Z,82.91
2023-01-19T16:16:15.176Z,83.42
2023-01-19T16:18:42.244Z,82.25
2023-01-19T16:21:09.531Z,82.25
2023-01-19T16:23:36.752Z,82.46
2023-01-19T16:26:08.231Z,83.21
2023-01-19T16:28:35.937Z,83.58
2023-01-19T16:31:03.708Z,82.58
2023-01-19T16:33:30.735Z,82.32
2023-01-19T16:35:57.796Z,82.91
2023-01-19T16:38:25.041Z,83.68
2023-01-19T16:40:53.165Z,83.33
2023-01-19T16:43:20.712Z,82.20
2023-01-19T16:45:59.045Z,82.16
2023-01-19T16:48:28.746Z,82.69
2023-01-19T16:51:00.463Z,83.75
2023-01-19T16:53:27.893Z,82.79
2023-01-19T16:55:54.954Z,81.89
2023-01-19T16:58:22.362Z,81.95
2023-01-19T17:00:50.864Z,82.54
2023-01-19T17:03:20.225Z,83.29
2023-01-19T17:05:52.706Z,82.73
2023-01-19T17:08:22.708Z,81.52
2023-01-19T17:10:51.714Z,81.84
2023-01-19T17:13:20.458Z,82.55
2023-01-19T17:15:50.456Z,83.47
2023-01-19T17:18:20.121Z,82.62
2023-01-19T17:20:48.727Z,81.38
2023-01-19T17:23:18.733Z,81.85
2023-01-19T17:25:57.519Z,82.24
2023-01-19T17:28:27.729Z,83.53
2023-01-19T17:30:57.824Z,82.61
2023-01-19T17:33:27.144Z,81.47
2023-01-19T17:35:56.472Z,81.70
2023-01-19T17:38:25.058Z,82.43
2023-01-19T17:40:54.984Z,82.91
2023-01-19T17:43:23.773Z,82.06
2023-01-19T17:45:53.289Z,81.26
2023-01-19T17:48:22.769Z,81.69
2023-01-19T17:50:54.778Z,82.48
2023-01-19T17:53:24.055Z,83.02
2023-01-19T17:55:53.227Z,81.80
2023-01-19T17:58:23.699Z,81.36
2023-01-19T18:08:20.919Z,81.59
2023-01-19T18:10:57.922Z,81.26
2023-01-19T18:13:25.051Z,81.52
2023-01-19T18:15:52.435Z,82.51
2023-01-19T18:18:19.606Z,83.34
2023-01-19T18:20:48.031Z,82.27
2023-01-19T18:23:14.978Z,81.08
2023-01-19T18:25:43.363Z,81.71
2023-01-19T18:28:10.290Z,82.27
2023-01-19T18:30:37.418Z,83.61
2023-01-19T18:33:04.499Z,82.78
2023-01-19T18:35:31.648Z,81.75
2023-01-19T18:37:58.998Z,81.68
2023-01-19T18:40:26.356Z,82.69
2023-01-19T18:42:53.312Z,83.27
2023-01-19T18:45:20.157Z,82.47
2023-01-19T18:47:47.420Z,81.31
2023-01-19T18:50:14.715Z,81.73
2023-01-19T18:52:41.979Z,82.77
2023-01-19T18:55:09.653Z,83.36
2023-01-19T18:57:38.311Z,82.81
2023-01-19T19:00:06.113Z,81.65
2023-01-19T19:02:33.465Z,82.03
2023-01-19T19:05:01.947Z,82.52
2023-01-19T19:07:29.520Z,83.38
2023-01-19T19:09:56.557Z,82.67
2023-01-19T19:12:24.143Z,81.61
2023-01-19T19:14:51.158Z,81.64
2023-01-19T19:17:18.084Z,82.25
2023-01-19T19:19:45.074Z,82.87
2023-01-19T19:22:11.988Z,82.92
2023-01-19T19:24:42.775Z,81.85
2023-01-19T19:27:14.356Z,82.03
2023-01-19T19:29:41.727Z,82.78
2023-01-19T19:32:08.844Z,83.45
2023-01-19T19:34:35.761Z,82.29
2023-01-19T19:37:02.676Z,81.36
2023-01-19T19:39:29.721Z,81.81
2023-01-19T19:41:56.653Z,82.53
2023-01-19T19:44:23.755Z,83.14
2023-01-19T19:46:50.794Z,82.11
2023-01-19T19:49:23.817Z,81.62
2023-01-19T19:51:50.758Z,82.29
2023-01-19T19:54:17.741Z,83.14
2023-01-19T19:56:46.069Z,82.63
2023-01-19T19:59:13.069Z,81.40
2023-01-19T20:02:35.680Z,81.42
2023-01-19T20:05:02.916Z,81.97
2023-01-19T20:07:29.971Z,82.85
2023-01-19T20:09:56.902Z,81.61
2023-01-19T20:12:23.957Z,80.90
2023-01-19T20:14:53.939Z,81.10
2023-01-19T20:17:21.283Z,81.72
2023-01-19T20:19:49.193Z,82.53
2023-01-19T20:22:16.122Z,81.62
2023-01-19T20:24:43.495Z,80.82
2023-01-19T20:27:10.613Z,81.30
2023-01-19T20:29:37.851Z,82.52
2023-01-19T20:32:04.997Z,82.73
2023-01-19T20:34:33.642Z,81.49
2023-01-19T20:37:01.943Z,81.00
2023-01-19T20:39:33.407Z,81.58
2023-01-19T20:42:01.397Z,82.08
2023-01-19T20:44:28.628Z,83.11
2023-01-19T20:46:56.236Z,81.95
2023-01-19T20:49:23.341Z,81.25
2023-01-19T20:51:52.363Z,81.13
2023-01-19T20:54:22.566Z,81.48
2023-01-19T20:56:49.713Z,82.41
2023-01-19T20:59:16.750Z,82.38
2023-01-19T21:01:44.132Z,81.47
2023-01-19T21:04:11.248Z,82.06
2023-01-19T21:06:38.520Z,82.21
2023-01-19T21:09:07.049Z,82.50
2023-01-19T21:11:35.902Z,82.05
2023-01-19T21:14:03.045Z,80.95
2023-01-19T21:16:32.670Z,80.86
2023-01-19T21:18:59.981Z,81.94
2023-01-19T21:21:31.675Z,82.89
2023-01-19T21:24:01.798Z,82.16
2023-01-19T21:26:33.664Z,80.99
2023-01-19T21:29:01.705Z,80.64
2023-01-19T21:31:29.006Z,81.61
2023-01-19T21:33:57.157Z,82.32
2023-01-19T21:36:24.823Z,81.60
2023-01-19T21:38:52.691Z,80.36
2023-01-19T21:41:19.806Z,80.28
2023-01-19T21:43:47.157Z,81.21
2023-01-19T21:46:21.907Z,81.49
2023-01-19T21:48:48.933Z,81.40
2023-01-19T21:51:15.851Z,79.89
2023-01-19T21:53:42.856Z,80.14
2023-01-19T21:56:10.560Z,80.77
2023-01-19T21:58:37.751Z,82.00
2023-01-19T22:01:07.431Z,82.18
2023-01-19T22:03:34.393Z,80.60
2023-01-19T22:14:50.130Z,81.03
2023-01-19T22:17:17.388Z,80.76
2023-01-19T22:19:44.437Z,81.33
2023-01-19T22:22:11.436Z,81.89
2023-01-19T22:24:38.922Z,81.74
2023-01-19T22:27:05.918Z,80.44
2023-01-19T22:29:32.847Z,80.15
2023-01-19T22:31:59.882Z,80.74
2023-01-19T22:34:26.951Z,81.04
2023-01-19T22:36:53.954Z,81.37
2023-01-19T22:39:20.864Z,81.84
2023-01-19T22:41:48.061Z,80.24
2023-01-19T22:44:21.134Z,80.27
2023-01-19T22:46:48.901Z,81.07
2023-01-19T22:49:16.711Z,81.90
2023-01-19T22:51:44.135Z,82.86
2023-01-19T22:54:11.137Z,82.00
2023-01-19T22:56:38.836Z,81.08
2023-01-19T22:59:06.596Z,81.20
2023-01-19T23:01:38.664Z,81.33
2023-01-19T23:04:06.010Z,82.08
2023-01-19T23:06:34.776Z,82.21
2023-01-19T23:09:03.621Z,80.68
2023-01-19T23:11:35.708Z,80.43
2023-01-19T23:14:03.976Z,81.10
2023-01-19T23:16:30.884Z,82.40
2023-01-19T23:18:58.133Z,83.70
2023-01-19T23:21:26.837Z,82.21
2023-01-19T23:23:58.191Z,81.31
2023-01-19T23:26:25.277Z,81.28
2023-01-19T23:28:56.713Z,81.56
2023-01-19T23:31:32.207Z,81.89
2023-01-19T23:34:06.909Z,80.90
2023-01-19T23:36:35.175Z,79.78
2023-01-19T23:39:21.698Z,80.13
2023-01-19T23:42:08.328Z,80.01
2023-01-19T23:44:36.032Z,80.63
2023-01-19T23:47:02.933Z,82.15
2023-01-19T23:49:29.863Z,81.60
2023-01-19T23:51:56.915Z,81.35
2023-01-19T23:54:23.796Z,81.95
2023-01-19T23:56:50.667Z,82.88
2023-01-19T23:59:17.690Z,83.74
